Time;durP1;ratioP1;P1;durP2;ratioP2;P2;SDS_P1;SDS_P2;PMS_P1;PMS_P2;Temp;Humidity;BMP_temperature;BMP_pressure;BME280_temperature;BME280_humidity;BME280_pressure;Samples;Min_cycle;Max_cycle;Signal;HPM_P1;HPM_P2
2022/04/25 00:00:51;;;;;;;15.63;14.23;;;;;;;10.98;85.27;99425.38;5029292;28;20746;-67
2022/04/25 00:03:16;;;;;;;16.27;14.70;;;;;;;10.95;85.42;99418.59;5017852;28;20774;-67
2022/04/25 00:05:42;;;;;;;16.10;14.60;;;;;;;10.96;85.31;99425.66;5016523;28;20514;-67
2022/04/25 00:08:07;;;;;;;18.85;16.48;;;;;;;10.92;85.42;99419.16;5013093;28;20417;-67
2022/04/25 00:10:32;;;;;;;18.20;16.40;;;;;;;10.94;85.60;99425.09;5029265;28;20480;-67
2022/04/25 00:12:58;;;;;;;19.23;17.35;;;;;;;10.95;85.38;99424.03;5015965;28;20405;-67
2022/04/25 00:15:23;;;;;;;17.83;16.13;;;;;;;11.03;85.35;99430.81;5025706;28;20411;-68
2022/04/25 00:17:48;;;;;;;18.80;16.90;;;;;;;11.01;85.35;99435.66;5025816;28;20445;-67
2022/04/25 00:20:14;;;;;;;18.07;16.37;;;;;;;11.02;85.37;99423.75;5019121;28;20404;-67
2022/04/25 00:22:40;;;;;;;18.13;16.30;;;;;;;10.95;85.17;99426.72;5011279;28;20416;-68
2022/04/25 00:25:06;;;;;;;18.27;16.47;;;;;;;10.92;85.64;99432.69;5018162;28;20473;-67
2022/04/25 00:27:31;;;;;;;18.30;16.70;;;;;;;10.94;85.19;99425.91;5014078;28;20841;-67
2022/04/25 00:29:56;;;;;;;17.17;15.57;;;;;;;11.00;85.21;99432.13;5019755;28;20440;-67
2022/04/25 00:32:23;;;;;;;18.70;16.83;;;;;;;11.07;84.91;99434.56;5015449;28;20409;-67
2022/04/25 00:34:48;;;;;;;18.35;16.52;;;;;;;11.05;84.73;99443.00;5014205;28;20409;-67
2022/04/25 00:37:14;;;;;;;17.95;16.30;;;;;;;10.99;85.28;99440.56;5021690;28;20449;-67
2022/04/25 00:39:39;;;;;;;17.73;16.13;;;;;;;10.98;85.30;99445.16;5021126;28;20388;-68
2022/04/25 00:42:05;;;;;;;18.25;16.55;;;;;;;11.03;85.24;99436.22;5004238;28;20506;-67
2022/04/25 00:44:30;;;;;;;19.33;17.53;;;;;;;11.05;85.00;99440.28;5003617;28;20827;-67
2022/04/25 00:46:56;;;;;;;19.27;17.63;;;;;;;11.10;84.89;99439.47;5010713;28;20408;-68
2022/04/25 00:49:23;;;;;;;19.30;17.50;;;;;;;11.12;84.82;99434.59;5024276;28;20390;-68
2022/04/25 00:51:51;;;;;;;18.65;16.90;;;;;;;11.13;84.80;99434.28;5011122;28;20812;-68
2022/04/25 00:54:17;;;;;;;19.88;17.88;;;;;;;11.14;84.68;99444.06;5016333;28;20470;-68
2022/04/25 00:56:43;;;;;;;19.27;17.47;;;;;;;11.15;84.76;99429.44;5020022;28;20902;-68
2022/04/25 00:59:09;;;;;;;23.77;18.57;;;;;;;11.10;84.88;99434.84;5022076;28;20401;-68
2022/04/25 01:01:35;;;;;;;19.52;17.73;;;;;;;11.10;85.07;99437.56;5012741;28;20420;-67
2022/04/25 01:04:00;;;;;;;19.43;17.50;;;;;;;11.13;84.61;99437.00;5012273;28;20416;-67
2022/04/25 01:06:25;;;;;;;20.80;18.80;;;;;;;11.14;84.32;99429.69;5019102;28;20391;-68
2022/04/25 01:08:51;;;;;;;20.90;18.90;;;;;;;11.15;84.56;99434.03;5022995;28;20443;-68
2022/04/25 01:11:17;;;;;;;21.57;19.33;;;;;;;11.12;84.63;99434.59;5018009;28;20589;-68
2022/04/25 01:13:43;;;;;;;21.60;19.48;;;;;;;11.12;84.43;99437.28;5011370;28;20499;-67
2022/04/25 01:16:08;;;;;;;20.77;18.87;;;;;;;11.12;84.58;99435.41;5027437;28;20495;-68
2022/04/25 01:18:34;;;;;;;21.17;18.93;;;;;;;11.11;84.71;99435.66;5021404;28;20473;-68
2022/04/25 01:21:02;;;;;;;22.37;20.17;;;;;;;11.07;84.74;99438.09;5018647;28;20752;-67
2022/04/25 01:28:58;;;;;;;21.63;19.63;;;;;;;11.08;84.49;99453.28;5009655;28;20989;-68
2022/04/25 01:31:23;;;;;;;21.02;19.05;;;;;;;11.09;84.74;99443.25;5023668;28;20413;-68
2022/04/25 01:33:48;;;;;;;22.70;20.50;;;;;;;11.12;84.56;99450.84;5015361;28;20920;-68
2022/04/25 01:36:14;;;;;;;23.70;21.20;;;;;;;11.07;84.60;99440.00;5012302;28;20393;-68
2022/04/25 01:38:39;;;;;;;23.13;20.83;;;;;;;11.05;84.65;99443.00;5010655;28;20400;-68
2022/04/25 01:41:04;;;;;;;22.30;20.20;;;;;;;11.10;84.63;99442.97;5026812;28;20481;-68
2022/04/25 01:43:35;;;;;;;23.87;21.47;;;;;;;11.12;84.52;99446.25;5012942;28;20414;-68
2022/04/25 01:46:00;;;;;;;23.23;20.95;;;;;;;11.13;84.58;99449.78;5023888;28;20887;-68
2022/04/25 01:48:25;;;;;;;22.73;20.53;;;;;;;11.12;84.49;99451.66;5023936;28;20383;-67
2022/04/25 01:50:53;;;;;;;23.65;21.23;;;;;;;11.09;84.44;99446.78;5012015;28;20797;-67
2022/04/25 01:53:18;;;;;;;23.70;21.20;;;;;;;11.08;84.39;99444.34;5027723;28;20895;-68
2022/04/25 01:55:43;;;;;;;22.90;20.67;;;;;;;11.09;84.52;99449.50;5018826;28;20430;-68
2022/04/25 01:58:09;;;;;;;23.33;21.03;;;;;;;11.10;84.51;99451.09;5018768;28;20405;-68
2022/04/25 02:00:34;;;;;;;23.03;20.67;;;;;;;11.09;84.27;99446.78;5017448;28;20447;-67
2022/04/25 02:03:00;;;;;;;24.13;21.63;;;;;;;11.11;84.21;99443.78;5014144;28;21026;-68
2022/04/25 02:05:25;;;;;;;24.15;21.77;;;;;;;11.11;83.92;99449.22;5025868;28;20432;-68
2022/04/25 02:07:51;;;;;;;24.70;22.07;;;;;;;11.10;83.82;99459.25;5021603;28;20762;-67
2022/04/25 02:10:16;;;;;;;24.27;21.67;;;;;;;11.08;84.02;99447.06;5014740;28;20418;-68
2022/04/25 02:12:44;;;;;;;24.27;21.87;;;;;;;11.06;83.95;99449.22;5007922;28;20780;-67
2022/04/25 02:15:12;;;;;;;23.45;20.98;;;;;;;11.05;83.89;99453.84;5011025;28;20409;-68
2022/04/25 02:17:38;;;;;;;23.80;21.40;;;;;;;11.02;83.98;99453.56;5021033;28;20790;-68
2022/04/25 02:20:04;;;;;;;24.03;21.63;;;;;;;11.00;83.98;99461.16;5015273;28;20414;-68
2022/04/25 02:22:29;;;;;;;24.97;22.47;;;;;;;11.00;83.71;99456.53;5013318;28;20888;-68
2022/04/25 02:24:55;;;;;;;24.50;22.00;;;;;;;10.98;83.94;99466.84;5031225;28;20741;-68
2022/04/25 02:27:21;;;;;;;26.73;23.98;;;;;;;10.97;83.75;99465.22;5023949;28;20395;-68
2022/04/25 02:29:48;;;;;;;26.55;22.38;;;;;;;11.12;83.15;99451.66;5020284;28;20412;-68
2022/04/25 02:32:13;;;;;;;24.65;22.23;;;;;;;11.09;83.45;99464.94;5013520;28;20408;-67
2022/04/25 02:34:39;;;;;;;25.52;23.02;;;;;;;11.10;83.05;99469.31;5003602;28;20383;-68
2022/04/25 02:37:06;;;;;;;26.85;24.05;;;;;;;11.00;83.37;99470.09;5027834;28;20388;-68
2022/04/25 02:39:32;;;;;;;26.27;23.65;;;;;;;11.03;83.41;99466.84;5012911;28;20507;-68
2022/04/25 02:41:57;;;;;;;26.53;23.87;;;;;;;11.07;83.05;99475.25;5013103;28;20547;-68
2022/04/25 02:44:22;;;;;;;28.30;25.30;;;;;;;11.01;82.73;99469.00;5031324;28;20583;-68
2022/04/25 02:46:47;;;;;;;26.43;23.67;;;;;;;11.04;82.77;99468.47;5022023;28;20868;-68
2022/04/25 02:49:13;;;;;;;28.67;25.77;;;;;;;11.03;82.72;99469.53;5021647;28;20404;-68
2022/04/25 02:51:38;;;;;;;28.40;25.40;;;;;;;11.01;82.71;99470.91;5007180;28;20477;-68
2022/04/25 02:54:03;;;;;;;25.63;23.03;;;;;;;10.98;82.80;99463.31;5000466;28;20945;-68
2022/04/25 02:56:29;;;;;;;25.53;22.93;;;;;;;10.90;82.95;99470.09;5029619;28;20392;-68
2022/04/25 02:58:54;;;;;;;24.20;21.90;;;;;;;10.87;83.18;99463.31;5016133;28;20424;-68
2022/04/25 03:01:19;;;;;;;25.83;23.33;;;;;;;10.86;83.06;99467.13;5014839;28;20401;-68
2022/04/25 03:03:44;;;;;;;26.33;23.63;;;;;;;10.83;83.39;99475.78;5015342;28;20404;-68
2022/04/25 03:06:10;;;;;;;26.13;23.47;;;;;;;10.81;83.42;99472.53;5023516;28;20444;-68
2022/04/25 03:08:37;;;;;;;26.48;23.83;;;;;;;10.88;83.39;99474.97;5024532;28;20457;-68
2022/04/25 03:11:05;;;;;;;26.02;23.42;;;;;;;10.89;83.18;99471.19;5024399;28;20438;-68
2022/04/25 03:13:34;;;;;;;26.05;23.38;;;;;;;10.85;83.54;99470.91;5018780;28;20388;-68
2022/04/25 03:16:00;;;;;;;27.23;24.33;;;;;;;10.84;83.46;99469.28;5003381;28;20470;-68
2022/04/25 03:18:25;;;;;;;26.02;23.08;;;;;;;10.80;83.58;99467.41;5026701;28;20454;-68
2022/04/25 03:20:51;;;;;;;25.27;22.67;;;;;;;10.80;83.76;99468.19;5024661;28;20412;-68
2022/04/25 03:23:18;;;;;;;25.90;23.20;;;;;;;10.83;83.77;99472.28;5013588;28;20503;-68
2022/04/25 03:25:44;;;;;;;26.13;23.40;;;;;;;10.84;83.55;99471.19;5017770;28;20409;-68
2022/04/25 03:28:10;;;;;;;24.73;22.17;;;;;;;10.89;83.76;99463.06;5027238;28;20393;-67
2022/04/25 03:30:35;;;;;;;26.63;23.73;;;;;;;10.93;83.62;99464.94;5021401;28;20411;-68
2022/04/25 03:33:01;;;;;;;26.27;23.43;;;;;;;10.97;83.27;99464.41;5017410;28;20561;-68
2022/04/25 03:35:27;;;;;;;27.25;24.25;;;;;;;10.98;83.34;99471.44;5016706;28;20409;-68
2022/04/25 03:37:53;;;;;;;26.48;23.77;;;;;;;10.99;83.39;99473.09;5025514;28;20904;-68
2022/04/25 03:40:18;;;;;;;28.00;23.83;;;;;;;11.00;83.53;99469.31;5004190;28;20438;-67
2022/04/25 03:42:44;;;;;;;25.13;22.42;;;;;;;11.00;83.52;99472.00;5011817;28;20416;-68
2022/04/25 03:45:11;;;;;;;26.38;23.77;;;;;;;11.00;83.63;99467.38;5030073;28;20900;-68
2022/04/25 03:47:38;;;;;;;27.95;23.92;;;;;;;11.02;83.47;99467.13;5012682;28;20455;-68
2022/04/25 03:50:07;;;;;;;33.65;26.45;;;;;;;11.03;83.63;99466.03;5011982;28;20412;-68
2022/04/25 03:52:33;;;;;;;30.92;25.95;;;;;;;10.99;83.81;99464.94;5022561;28;20724;-67
2022/04/25 03:57:42;;;;;;;32.53;26.48;;;;;;;10.98;83.98;99471.44;5025439;28;20419;-68
2022/04/25 04:00:07;;;;;;;38.63;26.90;;;;;;;10.97;84.29;99478.75;5012799;28;20417;-68
2022/04/25 04:02:33;;;;;;;35.20;28.00;;;;;;;10.94;84.51;99482.84;5014000;28;20393;-68
2022/04/25 04:05:00;;;;;;;31.27;25.95;;;;;;;10.98;84.28;99480.41;5019675;28;20776;-68
2022/04/25 04:07:26;;;;;;;36.67;27.52;;;;;;;10.99;84.20;99489.34;5013709;28;20474;-68
2022/04/25 04:09:51;;;;;;;35.80;27.57;;;;;;;10.97;84.28;99481.47;5011864;28;20961;-68
2022/04/25 04:12:19;;;;;;;37.83;26.87;;;;;;;11.00;84.34;99493.69;5019597;28;20427;-68
2022/04/25 04:14:45;;;;;;;37.47;28.10;;;;;;;11.02;84.34;99491.53;4999100;28;20458;-68
2022/04/25 04:17:10;;;;;;;39.55;27.75;;;;;;;11.01;84.70;99490.69;5012629;28;21004;-67
2022/04/25 04:19:37;;;;;;;34.95;27.23;;;;;;;10.99;84.57;99483.94;5007750;28;21057;-67
2022/04/25 04:22:06;;;;;;;32.17;25.75;;;;;;;10.99;84.92;99497.50;5017853;28;20427;-67
2022/04/25 04:24:32;;;;;;;37.47;27.25;;;;;;;10.98;84.99;99503.97;5012389;28;20429;-68
2022/04/25 04:27:01;;;;;;;33.80;27.05;;;;;;;10.99;85.00;99503.72;5011726;28;20466;-68
2022/04/25 04:29:30;;;;;;;36.97;27.60;;;;;;;11.03;84.84;99514.84;5008661;28;20499;-68
2022/04/25 04:32:01;;;;;;;35.00;27.97;;;;;;;11.06;84.70;99517.84;5013322;28;20401;-68
2022/04/25 04:34:27;;;;;;;36.83;29.27;;;;;;;11.06;84.50;99515.13;5005357;28;20437;-68
2022/04/25 04:36:53;;;;;;;38.22;29.02;;;;;;;11.09;84.54;99519.19;5009621;28;20459;-68
2022/04/25 04:39:19;;;;;;;46.30;30.13;;;;;;;11.10;84.17;99513.47;5006752;28;20412;-68
2022/04/25 04:41:45;;;;;;;42.53;30.60;;;;;;;11.09;84.31;99519.19;5001395;28;20767;-68
2022/04/25 04:44:10;;;;;;;46.55;31.23;;;;;;;11.05;84.82;99516.19;5007628;28;20444;-68
2022/04/25 04:46:36;;;;;;;50.58;31.60;;;;;;;11.04;85.10;99519.97;5007614;28;20440;-68
2022/04/25 04:49:01;;;;;;;52.73;31.67;;;;;;;11.01;85.35;99525.94;5008351;28;20454;-67
2022/04/25 04:51:26;;;;;;;43.10;30.03;;;;;;;11.00;85.79;99516.19;5001180;28;20413;-68
2022/04/25 04:53:51;;;;;;;47.20;31.87;;;;;;;11.07;85.60;99524.03;5005977;28;20425;-68
2022/04/25 04:56:17;;;;;;;38.37;29.67;;;;;;;11.11;85.50;99527.84;5014022;28;20510;-67
2022/04/25 04:58:42;;;;;;;43.30;30.58;;;;;;;11.15;85.22;99531.66;5020086;28;20890;-68
2022/04/25 05:01:07;;;;;;;39.23;29.23;;;;;;;11.17;85.18;99533.00;5020105;28;20426;-68
2022/04/25 05:03:34;;;;;;;53.80;30.30;;;;;;;11.19;84.94;99536.28;5025549;28;20407;-68
2022/04/25 05:05:59;;;;;;;38.28;28.13;;;;;;;11.18;85.02;99534.63;5022589;28;20870;-68
2022/04/25 05:08:24;;;;;;;47.60;31.00;;;;;;;11.18;85.08;99540.06;5025235;28;20411;-68
2022/04/25 05:10:50;;;;;;;43.83;32.03;;;;;;;11.17;85.36;99541.13;5021444;28;20408;-68
2022/04/25 05:13:16;;;;;;;50.00;31.70;;;;;;;11.19;85.11;99540.88;5018473;28;20396;-68
2022/04/25 05:15:42;;;;;;;56.58;32.40;;;;;;;11.17;85.24;99527.56;5016327;28;20403;-68
2022/04/25 05:18:08;;;;;;;53.55;33.55;;;;;;;11.16;85.22;99534.09;5010084;28;20895;-67
2022/04/25 05:20:33;;;;;;;47.05;33.00;;;;;;;11.15;85.40;99532.47;5016753;28;20494;-68
2022/04/25 05:22:58;;;;;;;49.67;31.63;;;;;;;11.16;85.38;99530.56;5016479;28;20443;-68
2022/04/25 05:25:25;;;;;;;43.13;32.77;;;;;;;11.17;85.10;99533.00;5015247;28;20411;-68
2022/04/25 05:27:52;;;;;;;45.67;33.22;;;;;;;11.20;85.04;99543.31;5027350;28;20897;-68
2022/04/25 05:30:19;;;;;;;44.65;33.63;;;;;;;11.21;85.24;99541.41;5005045;28;20425;-68
2022/04/25 05:32:50;;;;;;;44.83;33.33;;;;;;;11.19;85.47;99549.84;5012090;28;20405;-68
2022/04/25 05:35:18;;;;;;;42.47;32.90;;;;;;;11.20;85.41;99546.00;5019351;28;20399;-68
2022/04/25 05:37:44;;;;;;;44.63;33.88;;;;;;;11.21;85.32;99554.97;5013082;28;20955;-68
2022/04/25 05:40:11;;;;;;;44.35;32.72;;;;;;;11.25;85.44;99561.50;5020831;28;20506;-68
2022/04/25 05:42:39;;;;;;;43.63;33.28;;;;;;;11.28;85.04;99555.53;5018755;28;20453;-68
2022/04/25 05:45:05;;;;;;;43.83;33.10;;;;;;;11.30;85.00;99562.28;5019377;28;20416;-68
2022/04/25 05:47:33;;;;;;;47.22;33.90;;;;;;;11.27;85.07;99562.84;5026786;28;20412;-68
2022/04/25 05:52:42;;;;;;;43.72;33.15;;;;;;;11.28;85.29;99567.19;5027664;28;20472;-67
2022/04/25 05:55:08;;;;;;;36.45;30.10;;;;;;;11.31;85.41;99580.22;5012738;28;20875;-68
2022/04/25 05:57:33;;;;;;;36.30;28.93;;;;;;;11.35;85.20;99580.47;5022355;28;20416;-67
2022/04/25 05:59:58;;;;;;;37.67;31.25;;;;;;;11.39;84.82;99585.06;5016242;28;20402;-68
2022/04/25 06:02:23;;;;;;;35.70;30.37;;;;;;;11.39;84.77;99587.00;5028152;28;20411;-68
2022/04/25 06:04:49;;;;;;;38.27;30.43;;;;;;;11.41;84.58;99580.22;5027868;28;20418;-68
2022/04/25 06:07:14;;;;;;;42.73;32.13;;;;;;;11.41;84.61;99590.25;5017081;28;20742;-68
2022/04/25 06:09:39;;;;;;;34.40;28.57;;;;;;;11.41;84.89;99585.63;5022147;28;20395;-67
2022/04/25 06:12:05;;;;;;;36.53;30.03;;;;;;;11.40;84.69;99591.31;5013093;28;20417;-67
2022/04/25 06:14:31;;;;;;;33.57;28.20;;;;;;;11.43;84.66;99594.31;5024273;28;20486;-67
2022/04/25 06:16:57;;;;;;;33.97;28.97;;;;;;;11.48;84.50;99595.41;5012417;28;20395;-67
2022/04/25 06:19:22;;;;;;;34.67;28.48;;;;;;;11.46;84.40;99595.66;5025950;28;20400;-68
2022/04/25 06:21:48;;;;;;;32.30;28.53;;;;;;;11.47;84.51;99597.28;5011775;28;20412;-67
2022/04/25 06:24:13;;;;;;;32.28;27.90;;;;;;;11.47;84.42;99608.16;5013653;28;20979;-67
2022/04/25 06:26:38;;;;;;;30.47;27.17;;;;;;;11.50;84.37;99612.22;5014945;28;20436;-67
2022/04/25 06:29:04;;;;;;;29.02;25.85;;;;;;;11.52;84.24;99607.34;5019171;28;20411;-67
2022/04/25 06:31:29;;;;;;;35.67;31.23;;;;;;;11.52;84.10;99610.88;5020913;28;20807;-67
2022/04/25 06:33:54;;;;;;;41.20;35.43;;;;;;;11.48;83.85;99612.50;5020279;28;20823;-68
2022/04/25 06:36:20;;;;;;;31.33;28.07;;;;;;;11.51;83.98;99614.66;5016065;28;20765;-67
2022/04/25 06:38:45;;;;;;;29.50;26.47;;;;;;;11.57;83.68;99612.75;5021048;28;20409;-68
2022/04/25 06:41:10;;;;;;;28.40;25.50;;;;;;;11.57;83.72;99605.44;5010413;28;20417;-68
2022/04/25 06:43:36;;;;;;;32.63;29.10;;;;;;;11.61;83.57;99606.53;5024179;28;20456;-68
2022/04/25 06:46:02;;;;;;;30.55;27.25;;;;;;;11.65;83.79;99609.50;5014074;28;20411;-67
2022/04/25 06:48:27;;;;;;;29.98;26.77;;;;;;;11.74;83.53;99608.72;5011123;28;20409;-67
2022/04/25 06:50:55;;;;;;;30.90;27.80;;;;;;;11.80;83.31;99606.81;5012754;28;20388;-67
2022/04/25 06:53:21;;;;;;;32.75;29.48;;;;;;;11.82;83.05;99607.34;5014568;28;20400;-67
2022/04/25 06:55:46;;;;;;;32.30;28.88;;;;;;;11.90;82.36;99614.94;5010836;28;20416;-67
2022/04/25 06:58:12;;;;;;;37.33;32.77;;;;;;;12.02;81.74;99599.16;5010796;28;20408;-67
2022/04/25 07:00:37;;;;;;;33.20;29.80;;;;;;;12.01;82.17;99602.97;5018797;28;20423;-68
2022/04/25 07:03:03;;;;;;;33.57;29.93;;;;;;;12.04;82.06;99601.59;5019607;28;20412;-67
2022/04/25 07:05:28;;;;;;;32.53;29.17;;;;;;;12.06;81.66;99594.00;5026385;28;20399;-67
2022/04/25 07:07:53;;;;;;;34.13;30.43;;;;;;;12.03;81.44;99597.25;5010656;28;20482;-67
2022/04/25 07:10:18;;;;;;;33.43;30.07;;;;;;;12.02;81.75;99599.16;5014830;28;20415;-67
2022/04/25 07:12:44;;;;;;;32.83;29.42;;;;;;;12.10;81.66;99601.31;5010589;28;20884;-67
2022/04/25 07:15:10;;;;;;;32.37;29.10;;;;;;;12.08;81.22;99600.78;5009390;28;20415;-67
2022/04/25 07:17:35;;;;;;;33.20;29.87;;;;;;;12.07;81.03;99599.16;5005710;28;20467;-67
2022/04/25 07:20:00;;;;;;;33.17;29.88;;;;;;;12.04;81.19;99616.00;5029021;28;20880;-67
2022/04/25 07:30:38;;;;;;;31.63;28.33;;;;;;;12.04;80.28;99626.03;5016635;28;20415;-67
2022/04/25 07:33:03;;;;;;;33.45;29.48;;;;;;;12.13;80.24;99627.09;5014855;28;20793;-67
2022/04/25 07:35:29;;;;;;;37.27;29.37;;;;;;;12.06;80.95;99618.44;5027729;28;20497;-67
2022/04/25 07:37:57;;;;;;;38.60;27.90;;;;;;;12.02;81.21;99618.16;5013030;28;20412;-67
2022/04/25 07:40:24;;;;;;;33.20;26.65;;;;;;;11.97;81.50;99623.63;5009999;28;20417;-67
2022/04/25 07:42:49;;;;;;;34.22;26.85;;;;;;;11.98;82.00;99619.00;5013227;28;20411;-67
2022/04/25 07:45:14;;;;;;;31.90;26.80;;;;;;;12.02;81.94;99626.31;5029859;28;20400;-67
2022/04/25 07:47:43;;;;;;;35.10;27.87;;;;;;;12.05;82.01;99628.50;5016608;28;20453;-67
2022/04/25 07:50:10;;;;;;;35.55;28.88;;;;;;;12.00;82.74;99631.22;5028428;28;20885;-67
2022/04/25 07:52:36;;;;;;;33.17;28.07;;;;;;;12.03;82.84;99635.28;5019443;28;20381;-67
2022/04/25 07:55:02;;;;;;;34.20;28.10;;;;;;;12.08;83.00;99632.56;5014770;28;20424;-67
2022/04/25 07:57:28;;;;;;;34.55;28.33;;;;;;;12.12;82.79;99636.38;5009973;28;20409;-67
2022/04/25 07:59:54;;;;;;;31.03;27.33;;;;;;;12.13;83.10;99638.78;5013016;28;20408;-67
2022/04/25 08:02:20;;;;;;;32.63;28.37;;;;;;;12.18;83.02;99637.97;5011613;28;20412;-65
2022/04/25 08:04:45;;;;;;;33.78;28.45;;;;;;;12.18;82.40;99648.84;5028696;28;20432;-67
2022/04/25 08:07:12;;;;;;;32.95;27.17;;;;;;;12.22;82.71;99642.56;5016382;28;20416;-67
2022/04/25 08:09:37;;;;;;;33.95;27.90;;;;;;;12.27;82.69;99644.47;5033591;28;20397;-67
2022/04/25 08:20:15;;;;;;;28.83;25.73;;;;;;;12.47;81.85;99652.56;5012930;28;20396;-67
2022/04/25 08:22:40;;;;;;;28.37;25.17;;;;;;;12.46;81.66;99649.03;5026485;28;20395;-67
2022/04/25 08:25:07;;;;;;;28.53;24.90;;;;;;;12.47;81.85;99656.09;5011843;28;20499;-66
2022/04/25 08:27:33;;;;;;;30.40;25.30;;;;;;;12.45;81.71;99654.72;5013723;28;20516;-67
2022/04/25 08:29:59;;;;;;;30.27;25.13;;;;;;;12.45;82.09;99666.41;5022443;28;20499;-67
2022/04/25 08:32:24;;;;;;;29.03;24.57;;;;;;;12.46;82.02;99654.47;5025537;28;20919;-67
2022/04/25 08:34:49;;;;;;;27.23;24.13;;;;;;;12.44;81.70;99659.38;5021592;28;20453;-67
2022/04/25 08:37:16;;;;;;;26.27;23.47;;;;;;;12.44;81.81;99655.84;5020942;28;20444;-67
2022/04/25 08:39:41;;;;;;;25.75;23.05;;;;;;;12.46;81.99;99664.50;5012865;28;20776;-67
2022/04/25 08:42:07;;;;;;;26.60;23.80;;;;;;;12.47;82.04;99674.31;5010006;28;20421;-67
2022/04/25 08:44:33;;;;;;;27.17;24.10;;;;;;;12.48;81.98;99662.31;5017780;28;20421;-67
2022/04/25 08:46:59;;;;;;;28.10;24.20;;;;;;;12.48;82.04;99671.28;5023442;28;20418;-67
2022/04/25 08:49:25;;;;;;;27.80;23.75;;;;;;;12.52;82.28;99670.75;5024597;28;20383;-67
2022/04/25 08:51:58;;;;;;;30.83;26.17;;;;;;;12.58;82.32;99661.50;5014890;28;20471;-67
2022/04/25 08:54:29;;;;;;;29.85;25.63;;;;;;;12.56;82.95;99655.50;5021326;28;20916;-67
2022/04/25 08:56:55;;;;;;;31.02;27.05;;;;;;;12.60;83.04;99656.59;5023029;28;20792;-67
2022/04/25 08:59:22;;;;;;;29.15;25.52;;;;;;;12.65;83.28;99662.81;5026435;28;20391;-67
2022/04/25 09:01:48;;;;;;;29.23;25.60;;;;;;;12.70;83.19;99665.53;5013726;28;20876;-67
2022/04/25 09:04:14;;;;;;;30.90;26.83;;;;;;;12.72;83.21;99667.97;5027416;28;20420;-67
2022/04/25 09:06:41;;;;;;;28.70;25.77;;;;;;;12.77;83.26;99667.97;5021650;28;20460;-67
2022/04/25 09:09:06;;;;;;;29.50;25.25;;;;;;;12.84;82.96;99663.81;5019717;28;20389;-67
2022/04/25 09:14:17;;;;;;;25.80;23.00;;;;;;;13.07;82.24;99670.53;5006983;28;20474;-67
2022/04/25 09:16:42;;;;;;;27.02;22.38;;;;;;;13.24;81.58;99670.16;5021935;28;20454;-67
2022/04/25 09:19:08;;;;;;;25.27;22.57;;;;;;;13.33;81.30;99673.94;5024328;28;20854;-67
2022/04/25 09:21:41;;;;;;;22.65;20.25;;;;;;;13.36;80.26;99676.09;5015519;28;20577;-67
2022/04/25 09:24:23;;;;;;;23.15;20.42;;;;;;;13.42;79.93;99675.78;5011056;28;20903;-67
2022/04/25 09:26:53;;;;;;;22.30;20.00;;;;;;;13.42;80.40;99677.69;5009399;28;20487;-67
2022/04/25 09:29:27;;;;;;;19.17;17.23;;;;;;;13.54;80.50;99675.44;5028470;28;20415;-67
2022/04/25 09:31:53;;;;;;;17.75;15.95;;;;;;;13.62;78.95;99683.00;5010687;28;20411;-67
2022/04/25 09:34:59;;;;;;;18.97;17.00;;;;;;;13.72;78.55;99687.56;5011850;28;20511;-67
2022/04/25 09:37:07;;;;;;;20.77;18.63;;;;;;;13.83;79.11;99692.63;5012609;28;20403;-67
2022/04/25 09:39:32;;;;;;;19.50;17.47;;;;;;;13.88;78.74;99692.59;5027772;28;20377;-67
2022/04/25 09:41:59;;;;;;;18.23;16.25;;;;;;;13.91;78.18;99691.22;5010369;28;20558;-67
2022/04/25 09:44:25;;;;;;;21.42;18.88;;;;;;;14.02;78.52;99693.59;5024302;28;20411;-67
2022/04/25 09:46:50;;;;;;;19.02;17.10;;;;;;;14.18;78.63;99693.44;5016104;28;20400;-67
2022/04/25 09:49:20;;;;;;;17.00;15.30;;;;;;;14.45;78.19;99691.00;5023481;28;20382;-67
2022/04/25 09:52:01;;;;;;;16.73;15.13;;;;;;;14.64;77.23;99704.72;5023700;28;20484;-67
2022/04/25 09:54:27;;;;;;;15.95;14.25;;;;;;;14.62;76.23;99698.75;5012211;28;20389;-67
2022/04/25 09:56:52;;;;;;;15.90;14.48;;;;;;;14.58;76.12;99697.69;5013747;28;20428;-67
2022/04/25 09:59:18;;;;;;;14.33;12.83;;;;;;;14.55;75.80;99704.53;5023206;28;20397;-67
2022/04/25 10:01:45;;;;;;;14.63;13.20;;;;;;;14.60;75.93;99709.94;5017879;28;20422;-67
2022/04/25 10:04:33;;;;;;;14.68;13.13;;;;;;;14.62;75.31;99709.66;5022487;28;20410;-67
2022/04/25 10:07:06;;;;;;;15.25;13.88;;;;;;;14.60;75.87;99715.38;4999883;28;20501;-67
2022/04/25 10:09:33;;;;;;;14.25;12.73;;;;;;;14.62;76.13;99715.88;5023318;28;20388;-67
2022/04/25 10:12:01;;;;;;;15.07;13.48;;;;;;;14.61;75.49;99721.66;5009624;28;20400;-67
2022/04/25 10:14:27;;;;;;;12.75;11.65;;;;;;;14.47;73.49;99718.78;5011767;28;20409;-68
2022/04/25 10:16:56;;;;;;;13.25;12.05;;;;;;;14.36;73.18;99718.06;5015945;28;20383;-67
2022/04/25 10:19:23;;;;;;;12.75;11.63;;;;;;;14.38;74.51;99717.78;5023324;28;20752;-67
2022/04/25 10:21:51;;;;;;;12.80;11.65;;;;;;;14.44;75.05;99722.91;5021465;28;20395;-67
2022/04/25 10:24:19;;;;;;;13.90;12.68;;;;;;;14.45;75.05;99721.00;5012007;28;20413;-67
2022/04/25 10:26:46;;;;;;;12.82;11.63;;;;;;;14.51;75.44;99717.94;5011618;28;20397;-67
2022/04/25 10:29:17;;;;;;;13.68;12.48;;;;;;;14.65;75.36;99723.53;5020132;28;20427;-67
2022/04/25 10:31:44;;;;;;;11.75;10.68;;;;;;;14.79;74.37;99720.88;5015594;28;20405;-67
2022/04/25 10:34:10;;;;;;;12.35;11.05;;;;;;;14.85;73.42;99728.72;5028077;28;20477;-68
2022/04/25 10:36:39;;;;;;;12.67;9.57;;;;;;;14.83;72.56;99721.94;5022062;28;20391;-68
2022/04/25 10:39:16;;;;;;;10.30;9.40;;;;;;;14.79;73.74;99727.16;5023369;28;20408;-67
2022/04/25 10:44:43;;;;;;;9.60;8.90;;;;;;;15.04;70.97;99726.88;5006810;28;20460;-68
2022/04/25 10:47:11;;;;;;;9.98;9.18;;;;;;;15.25;69.64;99721.94;5024875;28;20393;-68
2022/04/25 10:49:52;;;;;;;9.10;8.32;;;;;;;16.68;66.77;99727.63;5027496;28;21096;-68
2022/04/25 10:55:36;;;;;;;7.30;6.80;;;;;;;20.60;52.72;99725.63;5020369;28;20396;-68
2022/04/25 10:58:01;;;;;;;10.02;7.50;;;;;;;21.62;51.02;99730.94;5015195;28;20403;-68
2022/04/25 11:00:44;;;;;;;5.77;5.37;;;;;;;22.43;49.64;99722.94;5013877;28;20955;-68
2022/04/25 11:03:27;;;;;;;5.53;5.03;;;;;;;23.17;48.60;99725.47;5020297;28;20395;-68
2022/04/25 11:06:02;;;;;;;5.82;5.32;;;;;;;23.55;46.38;99722.34;5032125;28;20424;-68
2022/04/25 11:08:28;;;;;;;6.80;6.13;;;;;;;23.86;44.47;99721.69;5022844;28;20411;-68
2022/04/25 11:10:56;;;;;;;7.20;6.50;;;;;;;23.69;44.31;99722.78;5021459;28;20771;-68
2022/04/25 11:13:23;;;;;;;7.20;6.65;;;;;;;24.20;45.54;99729.41;5024474;28;20445;-66
2022/04/25 11:15:51;;;;;;;5.85;5.35;;;;;;;24.66;43.70;99725.16;5017444;28;20407;-66
2022/04/25 11:18:38;;;;;;;6.50;5.90;;;;;;;24.69;43.72;99729.16;5026969;28;20400;-68
2022/04/25 11:21:07;;;;;;;5.30;5.00;;;;;;;24.79;41.72;99732.22;5017940;28;20872;-66
2022/04/25 11:23:33;;;;;;;5.78;5.35;;;;;;;24.65;43.26;99729.06;5023984;28;20412;-66
2022/04/25 11:26:00;;;;;;;5.70;5.30;;;;;;;24.87;42.12;99733.22;5021224;28;20388;-66
2022/04/25 11:28:27;;;;;;;5.22;5.00;;;;;;;25.13;42.87;99727.13;5024143;28;20488;-66
2022/04/25 11:31:14;;;;;;;5.63;5.30;;;;;;;25.33;42.23;99739.88;5019488;28;20482;-66
2022/04/25 11:33:43;;;;;;;5.60;5.25;;;;;;;25.33;43.24;99739.09;5015700;28;20399;-67
2022/04/25 11:36:11;;;;;;;4.70;4.43;;;;;;;25.67;41.17;99739.13;5025085;28;20431;-66
2022/04/25 11:41:25;;;;;;;5.13;4.72;;;;;;;25.36;39.91;99746.72;5005076;28;20455;-66
2022/04/25 11:43:50;;;;;;;4.43;4.17;;;;;;;25.53;40.93;99747.13;5016349;28;20452;-66
2022/04/25 11:46:18;;;;;;;4.10;3.90;;;;;;;25.66;37.89;99748.63;5014456;28;20393;-68
2022/04/25 11:48:48;;;;;;;5.40;5.00;;;;;;;25.55;38.87;99744.81;5030041;28;20395;-67
2022/04/25 11:51:25;;;;;;;5.10;4.70;;;;;;;25.40;37.48;99748.38;5004251;28;20405;-68
2022/04/25 11:53:54;;;;;;;4.25;4.05;;;;;;;25.76;38.31;99741.69;5023821;28;20403;-67
2022/04/25 11:56:23;;;;;;;4.78;4.38;;;;;;;26.14;38.00;99738.16;5019089;28;21500;-67